createdAt,value
2023-06-26T00:00:05.261Z,2.00
2023-06-26T00:02:34.522Z,1.70
2023-06-26T00:05:03.179Z,1.75
2023-06-26T00:07:31.305Z,1.70
2023-06-26T00:09:58.541Z,1.67
2023-06-26T00:12:25.421Z,1.80
2023-06-26T00:14:51.907Z,1.60
2023-06-26T00:17:19.049Z,1.77
2023-06-26T00:19:45.470Z,1.70
2023-06-26T00:22:12.167Z,1.83
2023-06-26T00:24:38.573Z,1.73
2023-06-26T00:27:05.030Z,1.65
2023-06-26T00:29:31.399Z,1.90
2023-06-26T00:31:57.908Z,1.70
2023-06-26T00:34:24.315Z,1.80
2023-06-26T00:36:50.745Z,1.55
2023-06-26T00:39:17.179Z,1.70
2023-06-26T00:41:43.562Z,1.80
2023-06-26T00:44:09.948Z,1.80
2023-06-26T00:46:36.523Z,1.70
2023-06-26T00:49:04.515Z,1.60
2023-06-26T00:51:31.695Z,1.70
2023-06-26T00:53:58.361Z,1.80
2023-06-26T00:56:25.280Z,1.80
2023-06-26T00:58:51.687Z,2.05
2023-06-26T01:01:18.772Z,1.92
2023-06-26T01:03:46.813Z,1.67
2023-06-26T01:06:15.120Z,1.80
2023-06-26T01:08:43.732Z,1.30
2023-06-26T01:11:11.459Z,1.70
2023-06-26T01:13:39.021Z,1.52
2023-06-26T01:16:06.174Z,1.63
2023-06-26T01:18:33.896Z,1.42
2023-06-26T01:21:02.258Z,1.80
2023-06-26T01:23:40.274Z,1.40
2023-06-26T01:26:23.269Z,1.50
2023-06-26T01:28:54.916Z,1.48
2023-06-26T01:31:21.578Z,1.70
2023-06-26T01:33:48.431Z,1.83
2023-06-26T01:36:15.084Z,1.55
2023-06-26T01:38:41.461Z,1.58
2023-06-26T01:41:07.992Z,1.58
2023-06-26T01:43:52.180Z,1.60
2023-06-26T01:46:29.901Z,1.42
2023-06-26T01:49:02.770Z,1.80
2023-06-26T01:51:34.039Z,1.48
2023-06-26T01:54:02.412Z,2.00
2023-06-26T01:56:31.148Z,1.45
2023-06-26T01:58:57.839Z,1.50
2023-06-26T02:01:24.334Z,1.50
2023-06-26T02:03:51.442Z,1.70
2023-06-26T02:06:18.052Z,1.52
2023-06-26T02:08:44.477Z,1.80
2023-06-26T02:11:10.977Z,1.52
2023-06-26T02:13:37.394Z,1.67
2023-06-26T02:16:04.181Z,1.30
2023-06-26T02:18:32.017Z,1.58
2023-06-26T02:20:58.434Z,1.73
2023-06-26T02:23:24.854Z,1.58
2023-06-26T02:25:51.256Z,1.65
2023-06-26T02:28:17.643Z,1.45
2023-06-26T02:30:44.108Z,1.60
2023-06-26T02:33:11.004Z,1.60
2023-06-26T02:35:37.454Z,1.80
2023-06-26T02:38:04.187Z,1.58
2023-06-26T02:40:30.951Z,1.63
2023-06-26T02:42:57.390Z,1.70
2023-06-26T02:45:23.838Z,1.60
2023-06-26T02:47:50.245Z,1.92
2023-06-26T02:50:16.794Z,1.52
2023-06-26T02:52:43.517Z,1.60
2023-06-26T02:55:10.037Z,1.52
2023-06-26T02:57:36.454Z,1.35
2023-06-26T03:00:03.011Z,1.52
2023-06-26T03:02:29.441Z,1.67
2023-06-26T03:04:55.932Z,1.40
2023-06-26T03:07:25.309Z,1.30
2023-06-26T03:09:51.785Z,1.50
2023-06-26T03:12:18.253Z,1.63
2023-06-26T03:14:46.526Z,1.58
2023-06-26T03:17:13.879Z,1.63
2023-06-26T03:19:40.345Z,1.60
2023-06-26T03:22:06.795Z,1.58
2023-06-26T03:24:34.770Z,1.48
2023-06-26T03:27:01.148Z,1.60
2023-06-26T03:29:27.750Z,1.55
2023-06-26T03:31:54.124Z,1.50
2023-06-26T03:34:21.220Z,1.70
2023-06-26T03:36:47.605Z,1.67
2023-06-26T03:39:14.078Z,1.30
2023-06-26T03:41:40.550Z,1.67
2023-06-26T03:44:06.991Z,1.55
2023-06-26T03:46:33.432Z,1.67
2023-06-26T03:48:59.863Z,1.67
2023-06-26T03:51:26.349Z,1.60
2023-06-26T03:53:52.773Z,1.60
2023-06-26T03:56:19.185Z,1.27
2023-06-26T03:58:45.869Z,1.70
2023-06-26T04:01:12.331Z,1.65
2023-06-26T04:03:38.761Z,1.60
2023-06-26T04:06:05.391Z,1.42
2023-06-26T04:08:31.798Z,1.55
2023-06-26T04:10:59.714Z,1.75
2023-06-26T04:13:26.138Z,1.33
2023-06-26T04:15:52.521Z,1.35
2023-06-26T04:18:21.456Z,1.23
2023-06-26T04:21:08.144Z,1.40
2023-06-26T04:23:35.111Z,1.42
2023-06-26T04:26:03.464Z,1.42
2023-06-26T04:28:30.087Z,1.38
2023-06-26T04:30:56.639Z,1.50
2023-06-26T04:33:24.414Z,1.50
2023-06-26T04:35:50.836Z,1.30
2023-06-26T04:38:17.285Z,1.30
2023-06-26T04:40:43.748Z,1.23
2023-06-26T04:43:10.299Z,1.55
2023-06-26T04:45:37.231Z,1.60
2023-06-26T04:48:04.497Z,1.35
2023-06-26T04:50:32.075Z,1.67
2023-06-26T04:52:58.641Z,1.23
2023-06-26T04:55:25.661Z,1.33
2023-06-26T04:57:52.580Z,1.60
2023-06-26T05:00:19.728Z,1.30
2023-06-26T05:02:46.336Z,1.38
2023-06-26T05:05:12.998Z,1.65
2023-06-26T05:07:39.386Z,1.52
2023-06-26T05:10:06.157Z,1.35
2023-06-26T05:12:32.541Z,1.52
2023-06-26T05:14:58.927Z,1.30
2023-06-26T05:17:25.299Z,1.38
2023-06-26T05:19:52.128Z,1.35
2023-06-26T05:22:18.833Z,1.30
2023-06-26T05:24:47.600Z,1.25
2023-06-26T05:27:22.757Z,1.50
2023-06-26T05:29:50.162Z,1.50
2023-06-26T05:32:20.950Z,1.42
2023-06-26T05:34:50.730Z,1.42
2023-06-26T05:37:22.333Z,1.23
2023-06-26T05:39:49.112Z,1.40
2023-06-26T05:42:16.268Z,1.35
2023-06-26T05:44:42.729Z,1.17
2023-06-26T05:47:09.312Z,1.35
2023-06-26T05:49:35.744Z,1.50
2023-06-26T05:52:02.557Z,1.33
2023-06-26T05:54:29.256Z,1.50
2023-06-26T05:57:00.291Z,1.10
2023-06-26T05:59:27.777Z,1.70
2023-06-26T06:01:54.915Z,1.52
2023-06-26T06:04:21.346Z,1.60
2023-06-26T06:06:47.794Z,1.63
2023-06-26T06:09:14.247Z,1.58
2023-06-26T06:11:40.752Z,1.30
2023-06-26T06:14:07.598Z,1.60
2023-06-26T06:16:34.010Z,1.67
2023-06-26T06:19:00.447Z,1.42
2023-06-26T06:21:26.852Z,1.80
2023-06-26T06:23:53.297Z,1.60
2023-06-26T06:26:20.108Z,1.70
2023-06-26T06:28:46.494Z,1.90
2023-06-26T06:31:12.919Z,1.60
2023-06-26T06:33:39.291Z,1.80
2023-06-26T06:36:05.848Z,1.70
2023-06-26T06:38:32.806Z,2.00
2023-06-26T06:40:59.276Z,1.95
2023-06-26T06:43:25.660Z,1.65
2023-06-26T06:45:52.195Z,1.45
2023-06-26T06:48:18.620Z,1.88
2023-06-26T06:50:44.990Z,1.42
2023-06-26T06:53:11.480Z,1.42
2023-06-26T06:55:37.881Z,1.95
2023-06-26T06:58:05.831Z,1.67
2023-06-26T07:00:32.936Z,1.45
2023-06-26T07:03:01.360Z,1.42
2023-06-26T07:05:28.054Z,1.80
2023-06-26T07:07:54.448Z,1.92
2023-06-26T07:10:20.874Z,1.73
2023-06-26T07:12:47.825Z,1.50
2023-06-26T07:15:14.231Z,1.80
2023-06-26T07:17:40.674Z,1.80
2023-06-26T07:20:09.256Z,1.50
2023-06-26T07:22:36.342Z,1.38
2023-06-26T07:25:05.001Z,1.63
2023-06-26T07:27:31.772Z,1.83
2023-06-26T07:29:58.242Z,1.67
2023-06-26T07:32:24.651Z,2.00
2023-06-26T07:34:51.132Z,1.65
2023-06-26T07:37:17.704Z,1.55
2023-06-26T07:39:44.083Z,2.10
2023-06-26T07:42:10.503Z,1.98
2023-06-26T07:44:37.344Z,1.48
2023-06-26T07:47:04.666Z,1.70
2023-06-26T07:49:31.192Z,1.80
2023-06-26T07:51:57.602Z,1.70
2023-06-26T07:54:24.012Z,1.80
2023-06-26T07:57:01.289Z,1.60
2023-06-26T07:59:29.172Z,1.52
2023-06-26T08:01:56.577Z,1.48
2023-06-26T08:04:25.433Z,2.00
2023-06-26T08:06:54.477Z,1.77
2023-06-26T08:09:22.993Z,1.95
2023-06-26T08:11:49.486Z,1.90
2023-06-26T08:14:17.048Z,2.03
2023-06-26T08:16:44.993Z,1.45
2023-06-26T08:19:12.713Z,1.90
2023-06-26T08:21:39.432Z,1.60
2023-06-26T08:24:05.965Z,2.05
2023-06-26T08:26:32.440Z,2.10
2023-06-26T08:28:58.981Z,1.92
2023-06-26T08:31:25.446Z,2.10
2023-06-26T08:33:52.465Z,1.95
2023-06-26T08:36:18.886Z,2.10
2023-06-26T08:38:45.307Z,2.08
2023-06-26T08:41:11.884Z,1.52
2023-06-26T08:43:38.386Z,1.83
2023-06-26T08:46:05.431Z,2.10
2023-06-26T08:48:35.019Z,1.92
2023-06-26T08:51:09.261Z,2.13
2023-06-26T08:53:59.261Z,1.88
2023-06-26T08:56:38.446Z,2.13
2023-06-26T08:59:05.490Z,1.92
2023-06-26T09:01:32.848Z,2.25
2023-06-26T09:03:59.789Z,2.15
2023-06-26T09:06:26.603Z,2.00
2023-06-26T09:08:53.255Z,2.22
2023-06-26T09:11:19.710Z,2.25
2023-06-26T09:13:48.554Z,2.13
2023-06-26T09:16:15.057Z,2.00
2023-06-26T09:18:43.661Z,2.17
2023-06-26T09:21:10.991Z,2.28
2023-06-26T09:23:37.778Z,2.22
2023-06-26T09:26:07.570Z,2.05
2023-06-26T09:31:07.912Z,1.88
2023-06-26T09:33:39.270Z,2.20
2023-06-26T09:36:08.056Z,2.20
2023-06-26T09:38:36.519Z,2.20
2023-06-26T09:41:04.411Z,2.20
2023-06-26T09:43:33.033Z,2.17
2023-06-26T09:46:01.374Z,1.97
2023-06-26T09:48:29.634Z,2.13
2023-06-26T09:51:10.655Z,2.25
2023-06-26T09:53:38.911Z,2.47
2023-06-26T09:56:08.893Z,2.50
2023-06-26T09:58:37.715Z,2.40
2023-06-26T10:01:04.386Z,2.35
2023-06-26T10:03:31.047Z,2.47
2023-06-26T10:05:58.167Z,2.45
2023-06-26T10:08:25.159Z,2.70
2023-06-26T10:10:53.264Z,2.60
2023-06-26T10:13:25.221Z,2.83
2023-06-26T10:15:52.527Z,2.53
2023-06-26T10:18:20.049Z,2.38
2023-06-26T10:20:49.165Z,2.45
2023-06-26T10:23:17.178Z,2.60
2023-06-26T10:25:47.027Z,2.50
2023-06-26T10:28:15.706Z,3.03
2023-06-26T10:30:43.903Z,2.83
2023-06-26T10:33:10.687Z,3.03
2023-06-26T10:35:44.777Z,3.10
2023-06-26T10:38:11.535Z,3.03
2023-06-26T10:40:49.855Z,2.95
2023-06-26T10:43:17.107Z,2.70
2023-06-26T10:45:53.069Z,3.10
2023-06-26T10:48:19.640Z,2.85
2023-06-26T10:50:50.167Z,3.05
2023-06-26T10:53:23.452Z,3.30
2023-06-26T10:56:06.142Z,2.78
2023-06-26T10:58:35.908Z,3.10
2023-06-26T11:01:25.151Z,2.92
2023-06-26T11:04:03.276Z,2.75
2023-06-26T11:06:30.518Z,3.70
2023-06-26T11:09:16.673Z,3.97
2023-06-26T11:11:52.358Z,3.63
2023-06-26T11:14:24.008Z,3.25
2023-06-26T11:16:50.554Z,3.10
2023-06-26T11:19:20.984Z,2.83
2023-06-26T11:21:48.121Z,2.90
2023-06-26T11:24:15.261Z,2.97
2023-06-26T11:26:43.315Z,2.47
2023-06-26T11:29:10.980Z,2.15
2023-06-26T11:31:39.316Z,2.08
2023-06-26T11:34:12.595Z,2.40
2023-06-26T11:36:39.868Z,2.05
2023-06-26T11:39:07.354Z,2.65
2023-06-26T11:41:35.982Z,2.53
2023-06-26T11:44:06.674Z,2.60
2023-06-26T11:46:34.859Z,2.10
2023-06-26T11:49:03.768Z,2.55
2023-06-26T11:51:30.305Z,2.90
2023-06-26T11:53:56.870Z,2.92
2023-06-26T11:56:23.666Z,2.85
2023-06-26T11:59:08.042Z,2.65
2023-06-26T12:01:46.220Z,2.80
2023-06-26T12:04:15.725Z,2.50
2023-06-26T12:06:49.173Z,3.00
2023-06-26T12:09:17.791Z,3.10
2023-06-26T12:11:49.505Z,2.88
2023-06-26T12:14:18.309Z,2.60
2023-06-26T12:16:44.929Z,3.23
2023-06-26T12:19:11.470Z,2.67
2023-06-26T12:21:37.876Z,2.58
2023-06-26T12:24:05.466Z,2.85
2023-06-26T12:26:36.549Z,3.17
2023-06-26T12:29:05.247Z,2.95
2023-06-26T12:31:32.982Z,2.80
2023-06-26T12:33:59.866Z,2.75
2023-06-26T12:36:26.292Z,2.47
2023-06-26T12:38:54.730Z,2.25
2023-06-26T12:41:25.151Z,2.33
2023-06-26T12:43:57.201Z,2.22
2023-06-26T12:46:36.319Z,2.10
2023-06-26T12:49:07.751Z,2.00
2023-06-26T12:51:39.002Z,2.10
2023-06-26T12:54:05.428Z,1.98
2023-06-26T12:56:31.901Z,2.22
2023-06-26T12:58:58.433Z,2.08
2023-06-26T13:01:25.447Z,1.90
2023-06-26T13:03:54.997Z,1.90
2023-06-26T13:06:21.801Z,1.58
2023-06-26T13:08:48.189Z,1.60
2023-06-26T13:11:14.539Z,1.50
2023-06-26T13:13:40.936Z,1.60
2023-06-26T13:16:07.411Z,1.50
2023-06-26T13:18:33.800Z,1.40
2023-06-26T13:21:00.179Z,1.50
2023-06-26T13:23:26.617Z,1.20
2023-06-26T13:25:53.992Z,1.20
2023-06-26T13:28:20.405Z,1.33
2023-06-26T13:30:46.811Z,1.38
2023-06-26T13:33:13.305Z,1.27
2023-06-26T13:35:39.723Z,1.40
2023-06-26T13:38:06.233Z,0.90
2023-06-26T13:40:32.610Z,1.23
2023-06-26T13:42:59.088Z,1.30
2023-06-26T13:45:31.472Z,1.00
2023-06-26T13:47:58.463Z,1.20
2023-06-26T13:50:24.875Z,1.20
2023-06-26T13:52:51.266Z,1.20
2023-06-26T13:55:18.561Z,1.38
2023-06-26T13:57:45.025Z,0.88
2023-06-26T14:00:13.299Z,1.33
2023-06-26T14:02:39.872Z,1.48
2023-06-26T14:05:06.683Z,1.10
2023-06-26T14:07:33.215Z,1.10
2023-06-26T14:09:59.716Z,1.23
2023-06-26T14:12:26.330Z,1.20
2023-06-26T14:14:52.764Z,1.20
2023-06-26T14:17:19.324Z,1.00
2023-06-26T14:19:46.898Z,1.05
2023-06-26T14:22:13.354Z,0.90
2023-06-26T14:24:39.757Z,0.80
2023-06-26T14:27:06.147Z,0.82
2023-06-26T14:29:32.607Z,0.50
2023-06-26T14:31:59.038Z,1.08
2023-06-26T14:34:25.531Z,0.50
2023-06-26T14:36:52.016Z,0.60
2023-06-26T14:39:18.426Z,0.73
2023-06-26T14:41:45.554Z,0.70
2023-06-26T14:44:12.335Z,0.70
2023-06-26T14:46:39.406Z,0.70
2023-06-26T14:49:05.988Z,0.70
2023-06-26T14:51:32.734Z,1.00
2023-06-26T14:53:59.136Z,0.90
2023-06-26T14:56:25.808Z,0.55
2023-06-26T14:58:55.162Z,0.50
2023-06-26T15:01:21.678Z,0.50
2023-06-26T15:03:48.361Z,1.02
2023-06-26T15:06:15.068Z,0.63
2023-06-26T15:08:41.686Z,0.57
2023-06-26T15:11:08.101Z,0.50
2023-06-26T15:13:34.555Z,0.95
2023-06-26T15:16:00.977Z,0.60
2023-06-26T15:18:27.513Z,0.60
2023-06-26T15:20:53.910Z,0.43
2023-06-26T15:23:20.303Z,0.80
2023-06-26T15:25:46.779Z,0.52
2023-06-26T15:28:13.162Z,0.40
2023-06-26T15:30:40.985Z,0.60
2023-06-26T15:33:07.725Z,0.65
2023-06-26T15:35:34.163Z,0.50
2023-06-26T15:38:00.644Z,0.57
2023-06-26T15:40:27.219Z,0.45
2023-06-26T15:42:53.851Z,0.70
2023-06-26T15:45:22.795Z,0.70
2023-06-26T15:47:50.363Z,0.50
2023-06-26T15:50:17.393Z,0.50
2023-06-26T15:52:43.845Z,0.50
2023-06-26T15:55:10.875Z,0.40
2023-06-26T15:57:37.444Z,0.50
2023-06-26T16:00:05.872Z,0.50
2023-06-26T16:02:32.290Z,0.40
2023-06-26T16:04:58.858Z,0.65
2023-06-26T16:07:25.422Z,0.80
2023-06-26T16:09:51.927Z,0.60
2023-06-26T16:12:18.416Z,0.60
2023-06-26T16:14:44.874Z,0.30
2023-06-26T16:17:11.312Z,0.52
2023-06-26T16:19:37.718Z,0.45
2023-06-26T16:22:04.538Z,0.60
2023-06-26T16:24:30.944Z,0.90
2023-06-26T16:26:57.318Z,0.50
2023-06-26T16:29:24.036Z,0.40
2023-06-26T16:31:50.499Z,0.40
2023-06-26T16:34:17.099Z,0.50
2023-06-26T16:36:43.542Z,0.70
2023-06-26T16:39:10.440Z,0.55
2023-06-26T16:41:36.820Z,0.55
2023-06-26T16:44:03.302Z,0.50
2023-06-26T16:46:29.689Z,0.70
2023-06-26T16:48:57.999Z,0.45
2023-06-26T16:51:24.571Z,0.60
2023-06-26T16:53:51.016Z,0.70
2023-06-26T16:56:19.940Z,0.50
2023-06-26T16:58:47.539Z,0.60
2023-06-26T17:01:14.006Z,0.55
2023-06-26T17:03:40.465Z,0.70
2023-06-26T17:06:08.746Z,0.60
2023-06-26T17:08:36.356Z,0.47
2023-06-26T17:11:02.761Z,0.55
2023-06-26T17:13:29.194Z,0.55
2023-06-26T17:15:55.748Z,0.77
2023-06-26T17:18:22.147Z,0.63
2023-06-26T17:20:48.597Z,0.77
2023-06-26T17:23:15.029Z,0.80
2023-06-26T17:25:41.478Z,0.45
2023-06-26T17:28:07.874Z,0.50
2023-06-26T17:30:34.390Z,0.35
2023-06-26T17:33:00.897Z,0.65
2023-06-26T17:35:27.298Z,0.43
2023-06-26T17:37:53.795Z,0.50
2023-06-26T17:40:20.265Z,0.47
2023-06-26T17:42:53.385Z,0.35
2023-06-26T17:45:19.801Z,0.60
2023-06-26T17:47:47.219Z,0.52
2023-06-26T17:50:14.480Z,0.70
2023-06-26T17:52:42.583Z,0.52
2023-06-26T17:55:09.972Z,0.30
2023-06-26T17:57:36.394Z,0.57
2023-06-26T18:00:03.725Z,0.40
2023-06-26T18:02:30.242Z,0.40
2023-06-26T18:04:57.190Z,0.50
2023-06-26T18:07:23.665Z,0.32
2023-06-26T18:09:50.114Z,0.40
2023-06-26T18:12:17.923Z,0.35
2023-06-26T18:14:44.886Z,0.40
2023-06-26T18:17:11.296Z,0.63
2023-06-26T18:19:37.735Z,0.60
2023-06-26T18:22:04.278Z,0.75
2023-06-26T18:24:30.702Z,0.50
2023-06-26T18:26:57.130Z,0.40
2023-06-26T18:29:23.519Z,0.40
2023-06-26T18:31:51.216Z,0.30
2023-06-26T18:34:17.646Z,0.50
2023-06-26T18:36:44.423Z,0.45
2023-06-26T18:39:12.774Z,0.63
2023-06-26T18:41:40.091Z,0.82
2023-06-26T18:44:07.722Z,0.30
2023-06-26T18:46:34.492Z,0.38
2023-06-26T18:49:05.162Z,0.40
2023-06-26T18:51:32.830Z,0.32
2023-06-26T18:54:01.766Z,0.50
2023-06-26T18:56:29.589Z,0.47
2023-06-26T18:58:56.090Z,0.40
2023-06-26T19:01:22.885Z,0.50
2023-06-26T19:03:49.391Z,0.25
2023-06-26T19:06:16.137Z,0.45
2023-06-26T19:08:42.532Z,0.30
2023-06-26T19:11:09.284Z,0.63
2023-06-26T19:13:36.144Z,0.30
2023-06-26T19:16:02.865Z,0.40
2023-06-26T19:18:29.503Z,0.32
2023-06-26T19:20:55.911Z,0.40
2023-06-26T19:23:22.894Z,0.45
2023-06-26T19:25:49.355Z,0.50
2023-06-26T19:28:15.769Z,0.40
2023-06-26T19:30:42.223Z,0.70
2023-06-26T19:33:08.760Z,0.50
2023-06-26T19:35:35.246Z,0.38
2023-06-26T19:38:05.754Z,0.30
2023-06-26T19:40:34.619Z,0.40
2023-06-26T19:43:01.826Z,0.40
2023-06-26T19:45:28.315Z,0.43
2023-06-26T19:47:55.291Z,0.25
2023-06-26T19:50:21.956Z,0.30
2023-06-26T19:52:49.461Z,0.38
2023-06-26T19:55:15.981Z,0.32
2023-06-26T19:57:45.589Z,0.30
2023-06-26T20:00:12.665Z,0.35
2023-06-26T20:02:39.718Z,0.35
2023-06-26T20:05:06.718Z,0.30
2023-06-26T20:07:33.367Z,0.40
2023-06-26T20:10:00.065Z,0.40
2023-06-26T20:12:26.456Z,0.32
2023-06-26T20:14:52.836Z,0.40
2023-06-26T20:17:19.222Z,0.28
2023-06-26T20:19:45.794Z,0.32
2023-06-26T20:22:12.331Z,0.70
2023-06-26T20:24:38.780Z,0.30
2023-06-26T20:27:05.680Z,0.30
2023-06-26T20:29:32.166Z,0.50
2023-06-26T20:31:58.552Z,0.40
2023-06-26T20:34:24.976Z,0.20
2023-06-26T20:36:51.485Z,0.32
2023-06-26T20:39:17.865Z,0.30
2023-06-26T20:41:44.680Z,0.30
2023-06-26T20:44:11.462Z,0.47
2023-06-26T20:46:38.934Z,0.30
2023-06-26T20:49:05.644Z,0.38
2023-06-26T20:51:32.436Z,0.38
2023-06-26T20:53:59.104Z,0.50
2023-06-26T20:56:25.606Z,0.30
2023-06-26T20:58:52.372Z,0.20
2023-06-26T21:01:20.140Z,0.60
2023-06-26T21:03:46.707Z,0.20
2023-06-26T21:06:13.182Z,0.35
2023-06-26T21:08:39.560Z,0.40
2023-06-26T21:11:06.047Z,0.30
2023-06-26T21:13:32.554Z,0.30
2023-06-26T21:15:59.007Z,0.40
2023-06-26T21:18:25.403Z,0.30
2023-06-26T21:20:51.822Z,0.45
2023-06-26T21:23:18.231Z,0.30
2023-06-26T21:25:44.686Z,0.40
2023-06-26T21:28:11.079Z,0.40
2023-06-26T21:30:37.716Z,0.50
2023-06-26T21:33:04.309Z,0.43
2023-06-26T21:35:42.982Z,0.40
2023-06-26T21:38:10.834Z,0.47
2023-06-26T21:40:37.316Z,0.50
2023-06-26T21:43:04.983Z,0.50
2023-06-26T21:45:31.439Z,0.50
2023-06-26T21:47:58.143Z,0.38
2023-06-26T21:50:24.607Z,0.30
2023-06-26T21:52:50.997Z,0.40
2023-06-26T21:55:17.398Z,0.60
2023-06-26T21:57:43.829Z,0.25
2023-06-26T22:00:13.598Z,0.50
2023-06-26T22:05:09.237Z,0.40
2023-06-26T22:07:46.705Z,0.47
2023-06-26T22:10:21.230Z,0.45
2023-06-26T22:12:47.724Z,0.30
2023-06-26T22:15:14.613Z,0.20
2023-06-26T22:17:49.891Z,0.60
2023-06-26T22:20:17.478Z,0.60
2023-06-26T22:22:44.689Z,0.50
2023-06-26T22:25:12.229Z,0.55
2023-06-26T22:27:43.022Z,0.47
2023-06-26T22:30:09.924Z,0.73
2023-06-26T22:32:36.964Z,0.40
2023-06-26T22:35:03.701Z,0.50
2023-06-26T22:37:30.591Z,0.40
2023-06-26T22:39:57.040Z,0.60
2023-06-26T22:42:23.749Z,0.45
2023-06-26T22:44:50.344Z,0.32
2023-06-26T22:47:16.884Z,0.30
2023-06-26T22:49:43.298Z,0.50
2023-06-26T22:52:10.283Z,0.50
2023-06-26T22:54:36.690Z,0.43
2023-06-26T22:57:03.836Z,0.65
2023-06-26T22:59:30.271Z,0.43
2023-06-26T23:01:57.018Z,0.40
2023-06-26T23:04:23.567Z,0.30
2023-06-26T23:06:52.097Z,0.45
2023-06-26T23:09:19.091Z,0.38
2023-06-26T23:11:45.463Z,0.30
2023-06-26T23:14:11.891Z,0.47
2023-06-26T23:16:40.034Z,0.30
2023-06-26T23:19:06.407Z,0.60
2023-06-26T23:21:33.787Z,0.70
2023-06-26T23:24:01.783Z,0.47
2023-06-26T23:26:31.880Z,0.43
2023-06-26T23:28:59.448Z,0.60
2023-06-26T23:31:26.832Z,0.30
2023-06-26T23:33:53.429Z,0.63
2023-06-26T23:36:19.938Z,0.50
2023-06-26T23:38:46.604Z,0.40
2023-06-26T23:41:16.340Z,0.52
2023-06-26T23:43:42.760Z,0.60
2023-06-26T23:46:11.835Z,0.50
2023-06-26T23:48:39.593Z,0.20
2023-06-26T23:51:06.082Z,0.50
2023-06-26T23:53:32.516Z,0.45
2023-06-26T23:55:59.724Z,0.40
2023-06-26T23:58:27.940Z,0.50
